Главная страница
METAR-TAF:

METAR-TAF

Аэропорты :

Гаррисберг, Пенсильвания, США

широта: 40-13-02N, долгота: 076-51-05W, высота над уровнем моря: 106 м

Текущие метеонаблюдения

Эта сводка был подготовлена 31 минут назад, в 06:56 UTC
Штиль
Температура 12°C
Влажность 94%
Давление 1010 hPa
Видимость: 16.1 км
Сплошная облачность на высоте 5000 фута
небольшой дождь

METAR: KCXY 200656Z AUTO 00000KT 10SM -RA OVC050 12/11 A2982 RMK AO2 RAE09B55 SLP098 P0000 T01170106

Время: 03:27 (07:27 UTC)


TAF: отсутствует

Метеонаблюдения и прогнозы для более 4000 аэропортов (сводки METAR и TAF).

Имеющиеся станции представлены на карте желтыми и красными точками.

Чтобы увидеть название станции, наведите на нее мышь.

Затем щелкните, чтобы увидеть метеонаблюдения и метеопрогнозы.

Управление картой: чтобы увеличить масштаб, щелкните зеленые кнопки с черным крестиком; чтобы уменьшить масштаб, щелкните зеленую кнопку с тире; для просмотра соседних карт щелкайте зеленые стрелки.


METAR-TAF: